Time;durP1;ratioP1;P1;durP2;ratioP2;P2;SDS_P1;SDS_P2;PMS_P1;PMS_P2;Temp;Humidity;BMP_temperature;BMP_pressure;BME280_temperature;BME280_humidity;BME280_pressure;Samples;Min_cycle;Max_cycle;Signal;HPM_P1;HPM_P2
2022/11/07 00:00:09;;;;;;;8.60;3.95;;;23.30;60.90;;;;;;5046958;28;20103;-74
2022/11/07 00:02:37;;;;;;;6.43;3.75;;;23.30;60.70;;;;;;5032634;28;20534;-73
2022/11/07 00:05:04;;;;;;;8.18;4.25;;;23.40;61.60;;;;;;5032538;28;20078;-73
2022/11/07 00:07:30;;;;;;;8.05;3.83;;;23.20;61.50;;;;;;5031223;28;20072;-73
2022/11/07 00:09:55;;;;;;;5.75;3.60;;;23.10;61.80;;;;;;5032331;28;20029;-73
2022/11/07 00:12:21;;;;;;;7.57;4.13;;;23.30;61.50;;;;;;5032065;28;20013;-74
2022/11/07 00:14:47;;;;;;;10.68;4.30;;;23.20;61.30;;;;;;5032301;28;20033;-74
2022/11/07 00:17:13;;;;;;;6.15;3.78;;;23.20;61.40;;;;;;5030696;28;20041;-73
2022/11/07 00:19:39;;;;;;;7.13;3.63;;;23.20;61.30;;;;;;5029603;28;20045;-73
2022/11/07 00:22:05;;;;;;;6.95;3.78;;;23.20;61.60;;;;;;5031982;28;20033;-73
2022/11/07 00:24:31;;;;;;;8.95;4.30;;;23.20;61.30;;;;;;5031901;28;20469;-73
2022/11/07 00:26:57;;;;;;;10.32;3.72;;;23.20;61.30;;;;;;5030739;28;20030;-74
2022/11/07 00:29:23;;;;;;;7.35;3.58;;;23.10;61.50;;;;;;5031868;28;20112;-73
2022/11/07 00:31:49;;;;;;;6.93;4.00;;;23.20;61.50;;;;;;5031905;28;20033;-73
2022/11/07 00:34:16;;;;;;;4.63;3.40;;;23.20;61.50;;;;;;5031270;28;20075;-73
2022/11/07 00:36:42;;;;;;;6.70;3.85;;;23.10;61.40;;;;;;5031371;28;20033;-73
2022/11/07 00:39:08;;;;;;;5.30;3.30;;;23.20;61.20;;;;;;5031366;28;20120;-73
2022/11/07 00:41:35;;;;;;;6.57;3.42;;;23.20;61.30;;;;;;5031620;28;20079;-74
2022/11/07 00:44:01;;;;;;;5.70;3.13;;;23.20;61.30;;;;;;5031221;28;20091;-74
2022/11/07 00:46:27;;;;;;;5.32;3.92;;;23.20;61.40;;;;;;5031227;28;20026;-73
2022/11/07 00:48:53;;;;;;;3.80;2.75;;;23.20;61.20;;;;;;5031354;28;20043;-73
2022/11/07 00:51:25;;;;;;;8.93;3.92;;;23.30;61.40;;;;;;5031417;28;20079;-73
2022/11/07 00:53:51;;;;;;;5.85;3.83;;;23.40;61.20;;;;;;5031721;28;20049;-73
2022/11/07 00:56:20;;;;;;;8.68;3.20;;;23.40;61.10;;;;;;5030838;28;20037;-74
2022/11/07 00:58:46;;;;;;;7.05;3.58;;;23.20;61.20;;;;;;5031289;28;20033;-73
2022/11/07 01:01:19;;;;;;;6.15;3.78;;;23.20;61.20;;;;;;5031243;28;20056;-73
2022/11/07 01:06:32;;;;;;;6.70;3.65;;;23.10;61.60;;;;;;5030621;28;19913;-73
2022/11/07 01:08:58;;;;;;;6.90;3.50;;;23.20;61.50;;;;;;5031385;28;20045;-74
2022/11/07 01:11:26;;;;;;;6.68;3.58;;;23.10;61.30;;;;;;5031123;28;20465;-73
2022/11/07 01:13:57;;;;;;;3.78;3.22;;;23.10;61.20;;;;;;5031315;28;20033;-73
2022/11/07 01:16:24;;;;;;;7.28;3.40;;;23.10;61.50;;;;;;5030978;28;20462;-74
2022/11/07 01:18:51;;;;;;;6.88;3.20;;;23.10;61.50;;;;;;5030039;28;20080;-72
2022/11/07 01:21:17;;;;;;;4.57;2.97;;;23.10;61.50;;;;;;5031042;28;20029;-73
2022/11/07 01:23:43;;;;;;;9.07;3.83;;;23.10;61.50;;;;;;5031246;28;20045;-73
2022/11/07 01:26:11;;;;;;;5.47;3.60;;;23.00;61.40;;;;;;5031171;28;20096;-73
2022/11/07 01:28:37;;;;;;;6.68;3.25;;;23.10;61.40;;;;;;5030779;28;20187;-73
2022/11/07 01:31:09;;;;;;;4.88;3.28;;;23.00;61.50;;;;;;5030749;28;20029;-73
2022/11/07 01:33:36;;;;;;;7.25;3.40;;;22.90;61.70;;;;;;5030599;28;20090;-73
2022/11/07 01:36:07;;;;;;;4.90;3.58;;;22.90;61.90;;;;;;5031077;28;20029;-73
2022/11/07 01:38:35;;;;;;;9.13;3.75;;;23.00;61.90;;;;;;5030737;28;20384;-73
2022/11/07 01:41:19;;;;;;;4.53;3.13;;;23.10;61.80;;;;;;5030991;28;20033;-73
2022/11/07 01:44:05;;;;;;;5.50;3.42;;;23.10;61.80;;;;;;5030879;28;20033;-73
2022/11/07 01:46:41;;;;;;;5.03;3.67;;;23.20;61.70;;;;;;5030890;28;20037;-73
2022/11/07 01:49:13;;;;;;;4.75;3.33;;;23.10;61.70;;;;;;5030625;28;20045;-73
2022/11/07 01:51:54;;;;;;;3.70;2.92;;;23.10;61.70;;;;;;5029510;28;20446;-73
2022/11/07 01:54:25;;;;;;;4.32;3.05;;;23.10;61.80;;;;;;5031147;28;20041;-74
2022/11/07 01:56:52;;;;;;;5.63;3.50;;;23.00;61.60;;;;;;5030587;28;20033;-73
2022/11/07 01:59:24;;;;;;;4.53;3.50;;;23.00;61.50;;;;;;5029582;28;20079;-73
2022/11/07 02:01:50;;;;;;;3.78;3.25;;;23.00;61.50;;;;;;5030632;28;20112;-73
2022/11/07 02:04:19;;;;;;;7.20;3.90;;;23.00;61.20;;;;;;5029769;28;20428;-73
2022/11/07 02:06:55;;;;;;;5.20;3.15;;;22.90;61.40;;;;;;5047653;28;20067;-73
2022/11/07 02:09:21;;;;;;;5.75;3.55;;;22.90;61.80;;;;;;5047693;28;20121;-73
2022/11/07 02:11:47;;;;;;;6.70;3.50;;;22.90;61.80;;;;;;5014959;28;20080;-73
2022/11/07 02:14:17;;;;;;;4.32;3.33;;;22.90;61.80;;;;;;5047994;28;20047;-73
2022/11/07 02:16:44;;;;;;;6.07;3.47;;;22.80;61.80;;;;;;5047698;28;20642;-73
2022/11/07 02:19:19;;;;;;;6.32;3.88;;;23.00;61.90;;;;;;5047761;28;20049;-73
2022/11/07 02:21:57;;;;;;;5.28;3.90;;;22.80;61.80;;;;;;5047890;28;20049;-73
2022/11/07 02:24:30;;;;;;;7.82;3.65;;;22.80;61.90;;;;;;5031160;28;20398;-73
2022/11/07 02:26:57;;;;;;;5.30;3.25;;;22.80;61.90;;;;;;5047742;28;20132;-73
2022/11/07 02:29:25;;;;;;;5.55;3.38;;;22.80;61.80;;;;;;5047553;28;20043;-74
2022/11/07 02:32:02;;;;;;;6.43;3.40;;;22.70;61.80;;;;;;5031418;28;20061;-73
2022/11/07 02:34:29;;;;;;;4.38;3.20;;;22.70;61.90;;;;;;5047920;28;20083;-74
2022/11/07 02:36:56;;;;;;;4.43;2.92;;;22.70;61.80;;;;;;5044728;28;20510;-73
2022/11/07 02:39:22;;;;;;;7.55;3.30;;;22.70;61.90;;;;;;5030305;28;20038;-73
2022/11/07 02:41:49;;;;;;;4.32;2.63;;;22.70;61.80;;;;;;5030502;28;20041;-74
2022/11/07 02:44:15;;;;;;;3.97;3.42;;;22.70;61.70;;;;;;5031299;28;20454;-73
2022/11/07 02:46:42;;;;;;;4.50;3.40;;;22.80;61.70;;;;;;5033917;28;20021;-74
2022/11/07 02:49:08;;;;;;;5.07;3.33;;;22.70;61.80;;;;;;5032688;28;20037;-73
2022/11/07 02:51:34;;;;;;;3.78;3.28;;;22.60;61.60;;;;;;5033736;28;20188;-73
2022/11/07 02:54:00;;;;;;;6.70;3.17;;;22.60;61.90;;;;;;5033544;28;20116;-73
2022/11/07 02:56:26;;;;;;;4.50;3.70;;;22.60;61.70;;;;;;5033215;28;20037;-74
2022/11/07 02:58:52;;;;;;;5.68;3.10;;;22.80;61.80;;;;;;5033485;28;20068;-73
2022/11/07 03:01:19;;;;;;;5.28;3.45;;;22.80;61.70;;;;;;5030730;28;20048;-74
2022/11/07 03:03:47;;;;;;;7.85;3.80;;;22.80;61.60;;;;;;5033431;28;20037;-73
2022/11/07 03:06:17;;;;;;;6.93;3.50;;;22.70;61.90;;;;;;5033682;28;20048;-73
2022/11/07 03:08:43;;;;;;;6.07;3.60;;;22.80;61.60;;;;;;5033251;28;20706;-73
2022/11/07 03:11:10;;;;;;;6.07;3.20;;;22.70;61.40;;;;;;5033261;28;20042;-73
2022/11/07 03:13:37;;;;;;;4.10;3.33;;;22.90;61.40;;;;;;5033459;28;20038;-73
2022/11/07 03:16:10;;;;;;;5.55;3.33;;;22.90;61.50;;;;;;5033187;28;20109;-74
2022/11/07 03:18:36;;;;;;;7.28;3.65;;;23.00;61.50;;;;;;5033085;28;20086;-74
2022/11/07 03:21:03;;;;;;;5.95;3.47;;;22.90;61.40;;;;;;5033254;28;20420;-73
2022/11/07 03:23:29;;;;;;;4.53;3.45;;;22.90;61.50;;;;;;5033177;28;20029;-73
2022/11/07 03:25:55;;;;;;;7.60;3.90;;;23.00;61.40;;;;;;5032149;28;20044;-74
2022/11/07 03:28:22;;;;;;;8.20;3.35;;;22.90;61.30;;;;;;5031978;28;20043;-73
2022/11/07 03:30:48;;;;;;;6.53;3.88;;;23.00;61.30;;;;;;5033144;28;20087;-73
2022/11/07 03:33:14;;;;;;;6.65;3.80;;;22.90;61.20;;;;;;5033304;28;20037;-73
2022/11/07 03:35:40;;;;;;;5.78;3.80;;;23.00;61.30;;;;;;5033065;28;20037;-74
2022/11/07 03:38:05;;;;;;;4.90;3.53;;;23.10;61.40;;;;;;5032652;28;20041;-73
2022/11/07 03:40:31;;;;;;;6.32;3.42;;;23.10;61.20;;;;;;5032921;28;20364;-74
2022/11/07 03:42:57;;;;;;;4.78;3.20;;;23.10;61.20;;;;;;5031733;28;20646;-73
2022/11/07 03:45:23;;;;;;;5.53;3.55;;;23.10;61.00;;;;;;5032881;28;20041;-73
2022/11/07 03:47:49;;;;;;;5.53;2.67;;;23.00;61.00;;;;;;5032625;28;20025;-73
2022/11/07 03:50:19;;;;;;;9.63;3.53;;;23.10;60.90;;;;;;5032512;28;20043;-74
2022/11/07 03:52:46;;;;;;;7.85;3.30;;;23.20;60.60;;;;;;5032127;28;20691;-73
2022/11/07 03:55:14;;;;;;;7.45;3.55;;;23.10;60.50;;;;;;5032099;28;20116;-73
2022/11/07 03:57:41;;;;;;;5.47;3.65;;;23.10;60.40;;;;;;5031824;28;21989;-73
2022/11/07 04:00:08;;;;;;;4.78;3.45;;;23.10;60.90;;;;;;5032425;28;20116;-73
2022/11/07 04:02:40;;;;;;;8.40;3.83;;;23.20;61.00;;;;;;5032412;28;20037;-73
2022/11/07 04:05:07;;;;;;;5.68;3.22;;;23.20;60.80;;;;;;5032552;28;20046;-74
2022/11/07 04:07:33;;;;;;;6.32;3.88;;;23.20;60.90;;;;;;5031015;28;20115;-73
2022/11/07 04:09:59;;;;;;;5.40;3.60;;;23.20;60.90;;;;;;5032296;28;20029;-73
2022/11/07 04:17:55;;;;;;;7.72;4.13;;;23.10;60.80;;;;;;5031891;28;20128;-74
2022/11/07 04:20:21;;;;;;;5.90;4.57;;;23.10;60.80;;;;;;5032192;28;20096;-73
2022/11/07 04:22:47;;;;;;;9.38;3.83;;;23.10;60.30;;;;;;5032122;28;20068;-73
2022/11/07 04:25:13;;;;;;;6.55;4.43;;;23.00;60.90;;;;;;5031965;28;20033;-73
2022/11/07 04:27:42;;;;;;;6.13;3.90;;;22.90;60.90;;;;;;5031993;28;20030;-73
2022/11/07 04:30:18;;;;;;;7.93;4.35;;;23.00;60.80;;;;;;5031686;28;20076;-74
2022/11/07 04:32:46;;;;;;;6.75;4.30;;;22.90;60.80;;;;;;5031753;28;20079;-73
2022/11/07 04:35:13;;;;;;;6.07;3.72;;;23.00;60.90;;;;;;5031746;28;20060;-73
2022/11/07 04:37:39;;;;;;;9.30;4.15;;;23.00;61.10;;;;;;5031707;28;20493;-74
2022/11/07 04:40:06;;;;;;;6.70;4.18;;;23.00;60.80;;;;;;5031465;28;20029;-73
2022/11/07 04:42:32;;;;;;;7.47;4.18;;;23.10;60.60;;;;;;5031687;28;20041;-73
2022/11/07 04:44:58;;;;;;;5.57;3.50;;;23.00;60.40;;;;;;5031473;28;20382;-74
2022/11/07 04:47:24;;;;;;;7.03;4.60;;;23.10;60.40;;;;;;5030791;28;20040;-73
2022/11/07 04:49:50;;;;;;;7.82;5.03;;;23.10;60.20;;;;;;5030212;28;20030;-73
2022/11/07 04:52:16;;;;;;;5.30;3.97;;;23.10;60.00;;;;;;5031231;28;20044;-74
2022/11/07 04:54:42;;;;;;;5.40;3.75;;;23.00;60.40;;;;;;5031617;28;20026;-73
2022/11/07 04:57:08;;;;;;;8.80;4.53;;;23.10;60.60;;;;;;5030456;28;20036;-74
2022/11/07 04:59:34;;;;;;;4.28;3.63;;;23.20;60.10;;;;;;5031149;28;20041;-74
2022/11/07 05:02:01;;;;;;;9.40;3.40;;;23.30;59.70;;;;;;5030140;28;20037;-74
2022/11/07 05:04:27;;;;;;;4.80;3.72;;;23.30;59.40;;;;;;5031337;28;20455;-73
2022/11/07 05:06:53;;;;;;;7.00;3.72;;;23.30;59.20;;;;;;5030489;28;20069;-74
2022/11/07 05:09:19;;;;;;;5.88;3.97;;;23.40;59.10;;;;;;5031062;28;20501;-73
2022/11/07 05:11:46;;;;;;;3.90;3.00;;;23.40;59.10;;;;;;5031084;28;20036;-75
2022/11/07 05:14:12;;;;;;;5.95;3.38;;;23.40;59.10;;;;;;5031084;28;20483;-75
2022/11/07 05:16:41;;;;;;;4.30;3.60;;;23.40;60.00;;;;;;5031435;28;20083;-74
2022/11/07 05:19:11;;;;;;;7.85;3.97;;;23.50;60.10;;;;;;5031024;28;20099;-75
2022/11/07 05:21:37;;;;;;;10.02;5.00;;;23.60;61.40;;;;;;5031333;28;20060;-75
2022/11/07 05:24:03;;;;;;;6.95;4.82;;;23.90;61.70;;;;;;5031199;28;20109;-75
2022/11/07 05:26:29;;;;;;;8.68;4.68;;;23.90;62.00;;;;;;5030385;28;20025;-75
2022/11/07 05:28:55;;;;;;;9.45;5.10;;;23.90;57.80;;;;;;5030492;28;20504;-75
2022/11/07 05:31:21;;;;;;;5.07;4.13;;;23.80;55.80;;;;;;5029504;28;20032;-76
2022/11/07 05:33:46;;;;;;;8.25;4.32;;;24.00;55.70;;;;;;5030899;28;20572;-75
2022/11/07 05:36:14;;;;;;;5.93;4.00;;;23.80;54.70;;;;;;5030980;28;20030;-77
2022/11/07 05:38:41;;;;;;;7.50;4.47;;;23.90;54.30;;;;;;5031143;28;20059;-75
2022/11/07 05:41:08;;;;;;;5.18;4.00;;;23.90;53.60;;;;;;5030702;28;20037;-76
2022/11/07 05:43:34;;;;;;;6.57;3.90;;;23.80;53.00;;;;;;5031216;28;20359;-75
2022/11/07 05:46:00;;;;;;;6.95;4.00;;;23.90;52.70;;;;;;5030907;28;20036;-75
2022/11/07 05:48:26;;;;;;;6.78;4.15;;;23.90;52.20;;;;;;5031105;28;20033;-75
2022/11/07 05:50:53;;;;;;;7.22;4.82;;;24.00;51.70;;;;;;5030340;28;20117;-75
2022/11/07 05:53:20;;;;;;;1.73;0.82;;;23.90;51.10;;;;;;5029827;28;20057;-78
2022/11/07 05:55:47;;;;;;;0.85;0.40;;;23.80;51.60;;;;;;5030727;28;20048;-77
2022/11/07 05:58:13;;;;;;;2.40;1.58;;;24.00;52.80;;;;;;5031101;28;20033;-78
2022/11/07 06:00:40;;;;;;;3.00;1.67;;;23.80;52.70;;;;;;5029554;28;20045;-78
2022/11/07 06:03:07;;;;;;;5.72;3.88;;;23.90;53.20;;;;;;5030118;28;20103;-72
2022/11/07 06:05:33;;;;;;;8.20;4.68;;;23.90;50.30;;;;;;5011612;28;20049;-72
2022/11/07 06:07:59;;;;;;;6.88;4.97;;;23.70;48.00;;;;;;5029377;28;20518;-73
2022/11/07 06:10:25;;;;;;;6.00;3.83;;;23.70;49.20;;;;;;5030481;28;20167;-73
2022/11/07 06:12:59;;;;;;;4.10;3.60;;;23.70;51.10;;;;;;5029456;28;20390;-73
2022/11/07 06:15:27;;;;;;;4.95;3.80;;;23.60;51.80;;;;;;5030631;28;20159;-73
2022/11/07 06:17:53;;;;;;;6.70;4.72;;;23.80;52.50;;;;;;5030844;28;20120;-74
2022/11/07 06:20:19;;;;;;;10.90;7.72;;;23.90;52.90;;;;;;5034385;28;20473;-75
2022/11/07 06:22:45;;;;;;;13.52;9.02;;;23.90;54.20;;;;;;5034446;28;20068;-75
2022/11/07 06:25:11;;;;;;;6.65;5.28;;;24.10;56.10;;;;;;5034783;28;20029;-75
2022/11/07 06:27:37;;;;;;;7.90;4.75;;;23.90;54.40;;;;;;5034382;28;20036;-76
2022/11/07 06:30:04;;;;;;;9.10;6.45;;;24.10;51.50;;;;;;5033536;28;20033;-74
2022/11/07 06:32:30;;;;;;;13.13;9.15;;;24.10;52.80;;;;;;5044263;28;20128;-75
2022/11/07 06:34:56;;;;;;;6.47;5.18;;;24.10;56.40;;;;;;5053458;28;20478;-73
2022/11/07 06:37:25;;;;;;;7.18;4.72;;;24.10;50.50;;;;;;5036562;28;20041;-72
2022/11/07 06:39:51;;;;;;;6.53;5.15;;;24.10;48.30;;;;;;5033419;28;20036;-74
2022/11/07 06:42:17;;;;;;;7.05;5.07;;;24.10;47.10;;;;;;5033580;28;20048;-74
2022/11/07 06:44:43;;;;;;;8.23;4.72;;;24.00;47.00;;;;;;5039585;28;20110;-74
2022/11/07 06:47:09;;;;;;;8.40;5.88;;;24.00;46.10;;;;;;5053987;28;20029;-74
2022/11/07 06:49:35;;;;;;;10.85;5.85;;;23.90;47.30;;;;;;5034908;28;20029;-75
2022/11/07 06:52:01;;;;;;;8.70;5.85;;;24.10;53.30;;;;;;5033037;28;20037;-75
2022/11/07 06:54:27;;;;;;;10.13;5.55;;;24.00;55.80;;;;;;5033499;28;20410;-73
2022/11/07 06:56:53;;;;;;;8.65;5.63;;;24.00;56.50;;;;;;5048219;28;20045;-74
2022/11/07 06:59:19;;;;;;;13.52;6.47;;;24.00;57.00;;;;;;5034029;28;20060;-75
2022/11/07 07:01:45;;;;;;;9.60;5.97;;;23.90;59.60;;;;;;5039007;28;20117;-76
2022/11/07 07:04:11;;;;;;;10.07;5.07;;;23.80;58.50;;;;;;5053594;28;20136;-76
2022/11/07 07:06:38;;;;;;;9.82;6.00;;;23.90;59.70;;;;;;5053701;28;20167;-76
2022/11/07 07:09:07;;;;;;;11.93;6.07;;;23.90;59.30;;;;;;5053623;28;20794;-75
2022/11/07 07:11:37;;;;;;;14.75;7.25;;;23.90;58.70;;;;;;5052409;28;20082;-73
2022/11/07 07:14:04;;;;;;;9.52;6.63;;;24.00;59.30;;;;;;5053623;28;20085;-76
2022/11/07 07:16:30;;;;;;;11.32;6.45;;;23.90;59.50;;;;;;5053378;28;20040;-75
2022/11/07 07:18:56;;;;;;;11.68;6.43;;;23.90;60.80;;;;;;5053381;28;20064;-74
2022/11/07 07:21:22;;;;;;;13.32;6.53;;;23.70;61.00;;;;;;5053562;28;20540;-76
2022/11/07 07:23:49;;;;;;;11.88;6.75;;;23.70;61.70;;;;;;5018888;28;20032;-76
2022/11/07 07:26:15;;;;;;;14.18;7.03;;;23.60;62.50;;;;;;5053320;28;20033;-76
2022/11/07 07:28:43;;;;;;;7.70;5.05;;;23.50;62.50;;;;;;5053122;28;20033;-75
2022/11/07 07:31:14;;;;;;;10.48;5.63;;;23.50;63.20;;;;;;5051953;28;20025;-77
2022/11/07 07:33:45;;;;;;;9.50;5.90;;;23.60;63.10;;;;;;5052373;28;20440;-75
2022/11/07 07:36:11;;;;;;;8.52;5.40;;;23.60;62.30;;;;;;5044646;28;20029;-72
2022/11/07 07:38:38;;;;;;;7.30;4.70;;;23.70;60.90;;;;;;5032814;28;20034;-74
2022/11/07 07:41:05;;;;;;;11.48;6.82;;;23.80;60.00;;;;;;5032975;28;20029;-72
2022/11/07 07:43:32;;;;;;;16.40;7.57;;;23.80;59.30;;;;;;5032949;28;20478;-73
2022/11/07 07:45:59;;;;;;;13.23;5.35;;;23.80;58.80;;;;;;5032975;28;20038;-74
2022/11/07 07:48:26;;;;;;;13.55;5.90;;;23.80;58.20;;;;;;5032052;28;20454;-74
2022/11/07 07:50:52;;;;;;;9.30;5.53;;;23.90;58.10;;;;;;5032922;28;20037;-72
2022/11/07 07:53:18;;;;;;;11.88;6.55;;;23.90;57.90;;;;;;5033185;28;20036;-73
2022/11/07 07:55:44;;;;;;;13.68;6.40;;;23.90;57.60;;;;;;5031645;28;20044;-72
2022/11/07 07:58:11;;;;;;;10.95;5.20;;;24.00;57.90;;;;;;5032424;28;20379;-72
2022/11/07 08:00:37;;;;;;;13.70;5.70;;;23.90;58.20;;;;;;5032397;28;20041;-73
2022/11/07 08:03:06;;;;;;;7.50;4.57;;;23.90;58.30;;;;;;5032384;28;20501;-72
2022/11/07 08:05:32;;;;;;;10.70;3.92;;;24.10;58.40;;;;;;5030172;28;20048;-73
2022/11/07 08:07:58;;;;;;;2.85;0.95;;;23.90;58.40;;;;;;5032433;28;20425;-72
2022/11/07 08:10:24;;;;;;;9.07;1.85;;;24.10;59.90;;;;;;5032273;28;20029;-71
2022/11/07 08:12:51;;;;;;;1.40;1.30;;;24.30;59.60;;;;;;5032423;28;20040;-72
2022/11/07 08:15:19;;;;;;;1.75;1.63;;;24.50;59.30;;;;;;5032386;28;20052;-70
2022/11/07 08:17:45;;;;;;;2.83;2.60;;;24.60;56.70;;;;;;5032407;28;20043;-70
2022/11/07 08:20:14;;;;;;;3.33;2.20;;;24.80;56.60;;;;;;5032260;28;20022;-69
2022/11/07 08:22:40;;;;;;;3.45;2.25;;;25.00;57.80;;;;;;5032196;28;20033;-70
2022/11/07 08:25:08;;;;;;;11.15;2.28;;;24.80;57.20;;;;;;5032307;28;20025;-68
2022/11/07 08:27:35;;;;;;;3.35;1.85;;;24.80;57.70;;;;;;5031949;28;20052;-73
2022/11/07 08:30:02;;;;;;;5.97;2.75;;;24.80;55.10;;;;;;5031889;28;20041;-69
2022/11/07 08:32:29;;;;;;;7.32;3.78;;;24.70;55.30;;;;;;5031997;28;20462;-70
2022/11/07 08:34:55;;;;;;;6.82;2.90;;;24.70;60.20;;;;;;5032156;28;20038;-70
2022/11/07 08:37:21;;;;;;;3.47;2.17;;;24.80;57.70;;;;;;5049210;28;20033;-73
2022/11/07 08:39:47;;;;;;;8.82;3.92;;;24.80;55.30;;;;;;5051619;28;20076;-73
2022/11/07 08:42:14;;;;;;;1.52;1.42;;;24.80;57.60;;;;;;5051546;28;20069;-72
2022/11/07 08:44:40;;;;;;;10.32;3.63;;;24.80;58.20;;;;;;5051593;28;20368;-72
2022/11/07 08:47:06;;;;;;;6.13;2.83;;;24.80;58.20;;;;;;5036676;28;20049;-70
2022/11/07 08:49:32;;;;;;;0.57;0.57;;;24.70;58.00;;;;;;5031636;28;20033;-69
2022/11/07 08:52:00;;;;;;;8.13;2.67;;;24.90;58.40;;;;;;5031449;28;20026;-70
2022/11/07 08:54:27;;;;;;;4.70;1.83;;;24.80;55.40;;;;;;5031619;28;20041;-71
2022/11/07 08:56:54;;;;;;;4.75;3.13;;;24.80;57.00;;;;;;5031303;28;20041;-73
2022/11/07 08:59:21;;;;;;;4.63;2.15;;;24.80;55.30;;;;;;5030450;28;20026;-71
2022/11/07 09:01:47;;;;;;;2.60;2.13;;;24.90;53.60;;;;;;5031889;28;20053;-72
2022/11/07 09:04:13;;;;;;;3.33;1.98;;;24.80;53.50;;;;;;5031330;28;20033;-70
2022/11/07 09:06:39;;;;;;;8.40;3.35;;;24.80;54.00;;;;;;5031238;28;20041;-69
2022/11/07 09:09:05;;;;;;;9.50;2.78;;;24.90;55.80;;;;;;5031575;28;20026;-70
2022/11/07 09:11:31;;;;;;;6.72;3.90;;;24.80;56.90;;;;;;5030211;28;20095;-70
2022/11/07 09:13:57;;;;;;;3.92;2.90;;;24.90;59.30;;;;;;5031522;28;20115;-70
2022/11/07 09:16:23;;;;;;;5.78;2.03;;;24.80;56.00;;;;;;5031091;28;20026;-70
2022/11/07 09:18:51;;;;;;;4.55;2.10;;;24.80;55.50;;;;;;5031518;28;20030;-73
2022/11/07 09:21:18;;;;;;;2.70;2.42;;;24.70;57.40;;;;;;5031136;28;20037;-69
2022/11/07 09:23:44;;;;;;;11.38;3.97;;;24.80;64.30;;;;;;5028867;28;20053;-71
2022/11/07 09:26:10;;;;;;;6.43;3.40;;;24.90;66.90;;;;;;5045210;28;20041;-71
2022/11/07 09:28:36;;;;;;;4.25;2.75;;;25.00;66.80;;;;;;5031334;28;20428;-71
2022/11/07 09:31:04;;;;;;;15.95;3.80;;;25.10;66.60;;;;;;5030035;28;20030;-71
2022/11/07 09:33:30;;;;;;;10.52;6.53;;;25.20;67.90;;;;;;5031324;28;20025;-70
2022/11/07 09:36:04;;;;;;;22.55;7.95;;;25.00;54.30;;;;;;5037086;28;20028;-71
2022/11/07 09:38:31;;;;;;;18.80;8.63;;;24.90;52.70;;;;;;5050772;28;20045;-73
2022/11/07 09:41:11;;;;;;;17.17;6.38;;;25.00;55.40;;;;;;5051254;28;20034;-71
2022/11/07 09:43:45;;;;;;;20.23;7.43;;;25.00;59.90;;;;;;5044776;28;20030;-71
2022/11/07 09:46:32;;;;;;;10.35;6.18;;;25.00;54.50;;;;;;5028649;28;20041;-72
2022/11/07 09:49:08;;;;;;;15.65;7.18;;;25.00;52.10;;;;;;5031016;28;20049;-71
2022/11/07 09:51:40;;;;;;;13.52;6.10;;;25.00;54.30;;;;;;5011364;28;20042;-72
2022/11/07 09:54:15;;;;;;;8.93;5.28;;;25.00;50.40;;;;;;5013835;28;20430;-70
2022/11/07 09:56:43;;;;;;;13.30;6.07;;;24.90;50.40;;;;;;5014819;28;20040;-70
2022/11/07 09:59:37;;;;;;;12.52;6.13;;;25.00;47.90;;;;;;5015362;28;20065;-71
2022/11/07 10:02:17;;;;;;;9.32;5.03;;;25.00;48.00;;;;;;5039158;28;20086;-69
2022/11/07 10:04:44;;;;;;;9.65;4.95;;;25.00;51.20;;;;;;5052336;28;20029;-70
2022/11/07 10:07:36;;;;;;;13.02;4.13;;;25.00;50.60;;;;;;5052014;28;20106;-71
2022/11/07 10:10:28;;;;;;;10.48;4.78;;;25.00;55.10;;;;;;4992730;28;20042;-69
2022/11/07 10:13:05;;;;;;;9.85;4.72;;;25.00;50.70;;;;;;4992558;28;20113;-71
2022/11/07 10:16:03;;;;;;;11.23;5.28;;;25.00;53.20;;;;;;4992216;28;20061;-69
2022/11/07 10:18:40;;;;;;;10.50;4.78;;;24.90;52.70;;;;;;4952935;29;20095;-69
2022/11/07 10:21:29;;;;;;;13.55;5.78;;;24.90;49.40;;;;;;4953579;29;20105;-70
2022/11/07 10:24:07;;;;;;;13.05;5.68;;;25.00;51.20;;;;;;4952970;29;20043;-70
2022/11/07 10:26:33;;;;;;;8.00;5.15;;;24.90;50.40;;;;;;4953159;29;20501;-70
2022/11/07 10:29:01;;;;;;;8.68;5.90;;;25.00;48.80;;;;;;4953479;29;20122;-70
2022/11/07 10:31:37;;;;;;;8.77;5.32;;;25.00;50.80;;;;;;4953909;29;20055;-70
2022/11/07 10:34:30;;;;;;;7.60;4.35;;;25.00;51.70;;;;;;4953440;29;20118;-69
2022/11/07 10:36:56;;;;;;;5.93;3.95;;;25.00;51.80;;;;;;4877479;29;20045;-70
2022/11/07 10:39:22;;;;;;;5.20;3.50;;;25.00;50.50;;;;;;4837951;29;20107;-70
2022/11/07 10:42:23;;;;;;;7.47;4.80;;;24.90;53.40;;;;;;4824877;29;20044;-71
2022/11/07 10:44:53;;;;;;;11.80;5.35;;;24.80;55.60;;;;;;4859123;29;20064;-70
2022/11/07 10:47:22;;;;;;;10.70;5.00;;;24.90;53.70;;;;;;4881321;29;20040;-73
2022/11/07 10:50:15;;;;;;;13.07;5.80;;;25.00;52.10;;;;;;4896421;29;20060;-71
2022/11/07 10:52:41;;;;;;;4.82;4.38;;;25.00;49.80;;;;;;4880645;29;20466;-71
2022/11/07 10:55:16;;;;;;;8.00;5.03;;;25.00;54.80;;;;;;4919142;28;20042;-73
2022/11/07 10:57:47;;;;;;;10.07;4.65;;;24.90;52.80;;;;;;4956277;28;20671;-72
2022/11/07 11:00:31;;;;;;;12.25;6.30;;;25.00;55.40;;;;;;4972392;28;20054;-73
2022/11/07 11:02:58;;;;;;;10.27;5.63;;;25.20;53.60;;;;;;4972346;28;20409;-72
2022/11/07 11:05:29;;;;;;;7.97;5.35;;;25.20;51.00;;;;;;4970992;28;20062;-73
2022/11/07 11:08:05;;;;;;;8.35;5.30;;;25.10;50.10;;;;;;4955903;28;20055;-72
2022/11/07 11:10:37;;;;;;;5.63;4.20;;;25.20;53.10;;;;;;4972414;28;20031;-72
2022/11/07 11:13:04;;;;;;;6.88;4.65;;;25.10;52.10;;;;;;4985385;28;20052;-73
2022/11/07 11:15:30;;;;;;;6.15;4.57;;;25.10;52.00;;;;;;5050975;28;20088;-73
2022/11/07 11:18:01;;;;;;;7.10;4.97;;;24.90;53.20;;;;;;5050918;28;20421;-73
2022/11/07 11:20:38;;;;;;;8.75;5.57;;;25.00;59.20;;;;;;5050796;28;20049;-73
2022/11/07 11:23:12;;;;;;;8.40;4.28;;;25.30;50.90;;;;;;5033638;28;20116;-75
2022/11/07 11:25:46;;;;;;;7.30;4.00;;;25.30;54.70;;;;;;5032094;28;20376;-73
2022/11/07 11:28:38;;;;;;;11.38;4.70;;;25.20;53.40;;;;;;5033167;28;20034;-74
2022/11/07 11:31:12;;;;;;;14.20;7.57;;;25.20;55.40;;;;;;5033039;28;20034;-73
2022/11/07 11:34:02;;;;;;;10.85;6.95;;;25.20;55.10;;;;;;5033296;28;20049;-74
2022/11/07 11:36:37;;;;;;;7.72;4.80;;;25.20;53.80;;;;;;5033253;28;20026;-74
2022/11/07 11:39:15;;;;;;;6.32;5.38;;;25.00;55.10;;;;;;5032205;28;20546;-74
2022/11/07 11:41:57;;;;;;;10.10;6.18;;;25.00;54.20;;;;;;5024362;28;20137;-73
2022/11/07 11:44:37;;;;;;;9.23;5.18;;;25.00;56.00;;;;;;5033101;28;20554;-73
2022/11/07 11:47:15;;;;;;;12.02;5.57;;;25.00;54.90;;;;;;5033075;28;20029;-73
2022/11/07 11:49:44;;;;;;;8.73;6.00;;;25.00;52.80;;;;;;5032917;28;20124;-73
2022/11/07 11:52:22;;;;;;;8.10;4.03;;;24.80;54.80;;;;;;5033164;28;20025;-74
2022/11/07 11:54:50;;;;;;;12.38;5.53;;;24.90;56.20;;;;;;5047285;28;20148;-73
2022/11/07 11:57:31;;;;;;;11.05;5.35;;;24.80;54.60;;;;;;5032711;28;20576;-74
2022/11/07 12:00:03;;;;;;;8.65;5.68;;;24.80;55.70;;;;;;5032682;28;20487;-74
2022/11/07 12:02:49;;;;;;;10.88;5.43;;;24.80;56.80;;;;;;5033005;28;20045;-73
2022/11/07 12:05:18;;;;;;;10.73;5.88;;;24.80;57.60;;;;;;5033015;28;20037;-73
2022/11/07 12:07:59;;;;;;;10.18;5.60;;;24.80;58.20;;;;;;5032732;28;20099;-73
2022/11/07 12:10:37;;;;;;;7.68;5.25;;;24.80;58.20;;;;;;5046947;28;20045;-74
2022/11/07 12:13:15;;;;;;;11.43;6.18;;;24.70;58.70;;;;;;5032604;28;20404;-75
2022/11/07 12:16:03;;;;;;;9.35;5.20;;;24.80;58.40;;;;;;5031085;28;20041;-74
2022/11/07 12:18:38;;;;;;;10.70;5.50;;;24.80;59.80;;;;;;5032069;28;20486;-74
2022/11/07 12:21:21;;;;;;;10.73;5.28;;;24.80;61.00;;;;;;5032269;28;20037;-75
2022/11/07 12:23:47;;;;;;;;;;;24.70;59.30;;;;;;5032926;28;20029;-73
2022/11/07 12:26:33;;;;;;;9.52;5.40;;;24.80;61.10;;;;;;5032135;28;19935;-72
2022/11/07 12:29:26;;;;;;;7.30;4.97;;;24.70;60.80;;;;;;5032447;28;20107;-75
2022/11/07 12:31:58;;;;;;;9.30;4.70;;;24.70;58.90;;;;;;5032098;28;20041;-73
2022/11/07 12:34:38;;;;;;;11.97;5.23;;;24.70;59.00;;;;;;5032237;28;20060;-73
2022/11/07 12:37:23;;;;;;;9.40;4.93;;;24.60;58.60;;;;;;5036009;28;20123;-72
2022/11/07 12:40:13;;;;;;;10.38;5.13;;;24.70;58.60;;;;;;5031286;28;20053;-71
2022/11/07 12:42:51;;;;;;;12.07;5.40;;;24.50;57.90;;;;;;5032038;28;20045;-73
2022/11/07 12:45:35;;;;;;;9.85;5.78;;;24.50;59.40;;;;;;5031466;28;20072;-71
2022/11/07 12:48:43;;;;;;;12.57;5.85;;;24.50;57.10;;;;;;5031348;28;20033;-74
2022/11/07 12:51:27;;;;;;;9.65;5.75;;;24.40;57.40;;;;;;5031446;28;20363;-74
2022/11/07 12:54:24;;;;;;;12.13;5.40;;;24.50;56.10;;;;;;5031545;28;20033;-73
2022/11/07 12:56:52;;;;;;;9.88;5.22;;;24.50;59.60;;;;;;5027820;28;20034;-72
2022/11/07 12:59:29;;;;;;;7.05;5.50;;;24.50;59.00;;;;;;5031288;28;20046;-71
2022/11/07 13:02:21;;;;;;;8.50;4.93;;;24.60;57.10;;;;;;5029300;28;20128;-71
2022/11/07 13:05:01;;;;;;;10.93;4.53;;;24.60;57.90;;;;;;4981067;28;20034;-69
2022/11/07 13:07:38;;;;;;;9.40;5.60;;;24.60;57.00;;;;;;4997564;28;20813;-69